Airfield :
LOGIN :

Register | Disclaimer

   EN    FR    IT 

 










Legend :    VFR   Marginal VFR   IFR   Intensive IFR   Very Intensive IFR
Visi :
Ceiling :
>= 8 km
>= 3000ft
5 to 8 km
1000 to 3000 ft
1500m to 5 km
500 to 1000 ft
800 to 1500m
200 to 500 ft
< 800m
< 200 ft
Symbols :   Thunderstorms  Fog  Heavy snow  Heavy precipitations  Wind > 20 kt
SIGMETs :     Misc.  Thunderstorms  Icing  Turbulence  Mountain Waves  Volcanic Ashes







- Airport Elevation : 796 ft
- IATA code : SYT
- Download approach charts


LFLN - Saint-Yan

CURRENT METAR :
  • 262200Z AUTO 35007KT CAVOK 04/M01 Q1029 NOSIG

EXPIRED METARs :
  • 262130Z AUTO 35007KT CAVOK 05/M01 Q1029 NOSIG
  • 262100Z AUTO 36008KT 340V040 CAVOK 06/M00 Q1029 NOSIG
  • 262030Z AUTO 36006KT 340V070 CAVOK 06/M01 Q1029 NOSIG
  • 262000Z AUTO 36010KT CAVOK 07/M00 Q1029 NOSIG
  • 261930Z AUTO 02007KT CAVOK 06/M01 Q1029 NOSIG

TAF AMD TAF LFLN
Valid from the 26 at 18:00 until the 27 at 03:00 UTC


261758Z 2618/2703 36010KT CAVOK
BECMG 2621/2624 32004KT
No reported NOTAMs for that airfield.
3 SIGMETs reported for the Marseille FIR (LFMM) :
 
Severe turbulence
LFMM SIGMET 21 VALID 262000/270000 LFPW
LFMM MARSEILLE FIR/UIR SEV TURB FCST WI N4115 E00930 - N4115 E00900 - N4300 E00830 - N4315 E00930 - N4115 E00930 SFC/FL090 STNR WKN=
Severe turbulence
LFMM SIGMET 20 VALID 262000/270000 LFPW
LFMM MARSEILLE FIR/UIR SEV TURB FCST WI N4345 E00300 - N4500 E00315 - N4530 E00445 - N4400 E00515 - N4345 E00300 SFC/FL080 STNR WKN=
Severe turbulence
LFMM SIGMET 19 VALID 262000/270000 LFPW
LFMM MARSEILLE FIR/UIR SEV TURB FCST S OF LINE N4030 E00800 - N4000 E00430 FL140/260 MOV S 10KT NC=



MET'MAP, your aeronautical weather chart ! - Copyright ORBIFLY December 2007 - Disclaimer

ORBIFLY MET'MAP TEAM :

Programming & Development : Alexandra Zaïnal
Concept & Development : Baudouin d'Aumeries
Co-Development & Prog : Marc-Olivier Méhu
Technical & hardware support : Manuel Goepfert

Contact : metmap@orbifly.com




SOURCES & CREDITS :

   NOAA